createdAt,value
2018-11-26T00:00:39.286Z,25.10
2018-11-26T00:03:44.392Z,25.10
2018-11-26T00:06:37.032Z,25.10
2018-11-26T00:09:42.838Z,25.10
2018-11-26T00:12:38.691Z,25.10
2018-11-26T00:15:35.682Z,25.10
2018-11-26T00:18:32.263Z,25.10
2018-11-26T00:21:28.659Z,25.10
2018-11-26T00:24:25.192Z,25.10
2018-11-26T00:27:21.466Z,25.10
2018-11-26T00:30:18.408Z,25.10
2018-11-26T00:33:17.982Z,25.10
2018-11-26T00:36:14.277Z,25.10
2018-11-26T00:39:14.343Z,25.10
2018-11-26T00:42:10.510Z,25.00
2018-11-26T00:45:06.791Z,25.10
2018-11-26T00:48:03.349Z,25.00
2018-11-26T00:51:05.702Z,25.00
2018-11-26T00:54:01.754Z,25.10
2018-11-26T00:56:59.286Z,25.00
2018-11-26T00:59:55.669Z,25.10
2018-11-26T01:02:52.720Z,25.00
2018-11-26T01:05:49.514Z,25.00
2018-11-26T01:08:46.108Z,25.00
2018-11-26T01:11:42.523Z,25.00
2018-11-26T01:14:40.776Z,25.00
2018-11-26T01:17:38.008Z,25.00
2018-11-26T01:20:34.478Z,25.00
2018-11-26T01:23:30.819Z,25.00
2018-11-26T01:26:26.902Z,25.00
2018-11-26T01:29:23.889Z,25.00
2018-11-26T01:32:20.744Z,25.00
2018-11-26T01:35:17.031Z,25.00
2018-11-26T01:38:13.287Z,25.00
2018-11-26T01:41:09.856Z,25.00
2018-11-26T01:44:16.101Z,25.00
2018-11-26T01:47:11.938Z,25.00
2018-11-26T01:50:08.416Z,25.00
2018-11-26T01:53:09.193Z,25.00
2018-11-26T01:56:01.931Z,25.00
2018-11-26T01:58:58.323Z,25.00
2018-11-26T02:01:54.858Z,24.90
2018-11-26T02:04:51.372Z,25.00
2018-11-26T02:07:48.367Z,25.00
2018-11-26T02:10:44.873Z,24.90
2018-11-26T02:13:44.132Z,24.90
2018-11-26T02:16:43.860Z,24.90
2018-11-26T02:19:40.459Z,24.90
2018-11-26T02:22:36.975Z,25.00
2018-11-26T02:25:33.792Z,24.90
2018-11-26T02:28:30.378Z,24.90
2018-11-26T02:31:26.978Z,24.90
2018-11-26T02:34:23.568Z,24.90
2018-11-26T02:37:19.989Z,24.90
2018-11-26T02:40:27.431Z,24.90
2018-11-26T02:43:25.138Z,24.90
2018-11-26T02:46:22.473Z,24.90
2018-11-26T02:49:19.040Z,24.90
2018-11-26T02:52:16.192Z,24.90
2018-11-26T02:55:13.848Z,24.90
2018-11-26T02:58:11.689Z,24.90
2018-11-26T03:01:08.400Z,24.90
2018-11-26T03:04:05.452Z,24.90
2018-11-26T03:07:02.710Z,24.90
2018-11-26T03:09:58.783Z,24.90
2018-11-26T03:12:56.180Z,24.90
2018-11-26T03:15:53.463Z,24.90
2018-11-26T03:18:51.236Z,24.90
2018-11-26T03:21:47.819Z,24.90
2018-11-26T03:24:44.990Z,24.90
2018-11-26T03:27:41.602Z,24.90
2018-11-26T03:30:38.711Z,24.90
2018-11-26T03:33:41.888Z,24.90
2018-11-26T03:36:38.593Z,24.90
2018-11-26T03:39:39.115Z,24.90
2018-11-26T03:42:32.426Z,24.90
2018-11-26T03:45:29.026Z,24.90
2018-11-26T03:48:25.344Z,24.90
2018-11-26T03:51:22.011Z,24.90
2018-11-26T03:54:18.609Z,24.90
2018-11-26T03:57:18.051Z,24.90
2018-11-26T04:00:21.059Z,24.90
2018-11-26T04:03:17.435Z,24.90
2018-11-26T04:06:13.846Z,24.90
2018-11-26T04:09:11.856Z,24.90
2018-11-26T04:12:08.907Z,24.90
2018-11-26T04:15:05.537Z,24.90
2018-11-26T04:18:02.545Z,24.90
2018-11-26T04:20:59.306Z,24.90
2018-11-26T04:23:55.765Z,24.80
2018-11-26T04:26:52.749Z,24.90
2018-11-26T04:29:49.609Z,24.80
2018-11-26T04:32:46.299Z,24.80
2018-11-26T04:35:45.578Z,24.80
2018-11-26T04:38:41.660Z,24.80
2018-11-26T04:41:38.224Z,24.80
2018-11-26T04:44:35.616Z,24.80
2018-11-26T04:47:32.968Z,24.80
2018-11-26T04:50:29.881Z,24.90
2018-11-26T04:53:27.070Z,24.80
2018-11-26T04:56:24.443Z,24.80
2018-11-26T04:59:21.897Z,24.80
2018-11-26T05:02:18.523Z,24.80
2018-11-26T05:05:16.879Z,24.80
2018-11-26T05:19:45.031Z,24.90
2018-11-26T05:22:41.683Z,24.90
2018-11-26T05:25:39.917Z,24.90
2018-11-26T05:28:37.061Z,24.90
2018-11-26T05:31:34.001Z,24.90
2018-11-26T05:34:30.593Z,24.90
2018-11-26T05:37:28.304Z,24.90
2018-11-26T05:40:27.104Z,24.90
2018-11-26T05:43:24.802Z,24.90
2018-11-26T05:46:22.068Z,24.90
2018-11-26T05:49:18.953Z,24.90
2018-11-26T05:52:17.361Z,24.90
2018-11-26T05:55:16.391Z,24.90
2018-11-26T05:58:14.758Z,24.90
2018-11-26T06:01:11.882Z,24.90
2018-11-26T06:04:08.566Z,24.90
2018-11-26T06:07:04.952Z,24.90
2018-11-26T06:10:01.244Z,24.90
2018-11-26T06:12:57.987Z,24.90
2018-11-26T06:15:53.976Z,24.90
2018-11-26T06:18:50.226Z,24.90
2018-11-26T06:21:52.980Z,24.90
2018-11-26T06:24:58.842Z,24.90
2018-11-26T06:27:53.139Z,24.90
2018-11-26T06:30:49.599Z,24.90
2018-11-26T06:34:02.044Z,24.90
2018-11-26T06:37:01.916Z,24.90
2018-11-26T06:40:04.410Z,24.90
2018-11-26T06:43:01.957Z,24.90
2018-11-26T06:46:01.345Z,24.90
2018-11-26T06:49:06.818Z,24.90
2018-11-26T06:52:04.018Z,24.90
2018-11-26T06:55:09.290Z,24.90
2018-11-26T06:58:06.381Z,24.90
2018-11-26T07:01:03.299Z,24.90
2018-11-26T07:04:00.009Z,24.90
2018-11-26T07:06:56.261Z,24.90
2018-11-26T07:09:53.127Z,24.90
2018-11-26T07:12:52.178Z,25.00
2018-11-26T07:15:48.671Z,25.00
2018-11-26T07:18:46.783Z,25.00
2018-11-26T07:21:49.427Z,25.00
2018-11-26T07:24:46.172Z,25.00
2018-11-26T07:27:42.528Z,25.00
2018-11-26T07:30:38.553Z,25.00
2018-11-26T07:33:36.526Z,25.00
2018-11-26T07:36:34.189Z,25.00
2018-11-26T07:39:31.212Z,25.00
2018-11-26T07:42:28.560Z,25.00
2018-11-26T07:45:26.928Z,25.00
2018-11-26T07:48:29.268Z,25.00
2018-11-26T07:51:27.100Z,25.00
2018-11-26T07:54:24.680Z,25.00
2018-11-26T07:57:21.568Z,25.00
2018-11-26T08:00:18.985Z,25.00
2018-11-26T08:03:18.582Z,25.00
2018-11-26T08:06:19.373Z,25.00
2018-11-26T08:09:15.965Z,25.00
2018-11-26T08:12:12.489Z,25.00
2018-11-26T08:15:11.581Z,25.00
2018-11-26T08:18:09.523Z,25.00
2018-11-26T08:21:06.368Z,25.00
2018-11-26T08:24:02.829Z,25.00
2018-11-26T08:26:58.885Z,25.00
2018-11-26T08:29:54.795Z,25.10
2018-11-26T08:32:52.097Z,25.10
2018-11-26T08:35:49.244Z,25.10
2018-11-26T08:39:08.671Z,25.10
2018-11-26T08:42:25.710Z,25.10
2018-11-26T08:45:33.341Z,25.10
2018-11-26T08:48:31.147Z,25.10
2018-11-26T08:51:27.915Z,25.10
2018-11-26T08:54:25.123Z,25.10
2018-11-26T08:57:24.333Z,25.10
2018-11-26T09:00:20.989Z,25.10
2018-11-26T09:03:26.422Z,25.10
2018-11-26T09:06:23.399Z,25.10
2018-11-26T09:09:21.428Z,25.10
2018-11-26T09:12:17.773Z,25.10
2018-11-26T09:15:21.004Z,25.10
2018-11-26T09:18:18.433Z,25.10
2018-11-26T09:21:15.447Z,25.10
2018-11-26T09:24:13.155Z,25.10
2018-11-26T09:27:10.974Z,25.10
2018-11-26T09:30:10.664Z,25.10
2018-11-26T09:33:10.424Z,25.10
2018-11-26T09:36:09.543Z,25.10
2018-11-26T09:39:08.691Z,25.10
2018-11-26T09:42:08.608Z,25.20
2018-11-26T09:45:07.982Z,25.20
2018-11-26T09:48:06.897Z,25.20
2018-11-26T09:51:05.352Z,25.20
2018-11-26T09:54:06.405Z,25.20
2018-11-26T09:57:03.586Z,25.20
2018-11-26T10:00:00.762Z,25.20
2018-11-26T10:02:57.899Z,25.20
2018-11-26T10:05:55.595Z,25.20
2018-11-26T10:08:53.269Z,25.20
2018-11-26T10:11:51.029Z,25.30
2018-11-26T10:14:48.843Z,25.30
2018-11-26T10:17:45.517Z,25.30
2018-11-26T10:20:45.069Z,25.40
2018-11-26T10:23:41.483Z,25.40
2018-11-26T10:26:38.343Z,25.40
2018-11-26T10:29:33.941Z,25.40
2018-11-26T10:32:29.643Z,25.40
2018-11-26T10:35:25.790Z,25.40
2018-11-26T10:38:24.620Z,25.40
2018-11-26T10:41:21.347Z,25.40
2018-11-26T10:44:19.733Z,25.40
2018-11-26T10:47:17.289Z,25.40
2018-11-26T10:50:19.368Z,25.50
2018-11-26T10:53:17.276Z,25.50
2018-11-26T10:56:13.754Z,25.50
2018-11-26T10:59:10.487Z,25.50
2018-11-26T11:02:23.016Z,25.50
2018-11-26T11:05:19.120Z,25.50
2018-11-26T11:08:15.545Z,25.50
2018-11-26T11:11:12.041Z,25.50
2018-11-26T11:14:10.054Z,25.60
2018-11-26T11:17:06.769Z,25.60
2018-11-26T11:20:03.347Z,25.60
2018-11-26T11:23:00.434Z,25.50
2018-11-26T11:25:56.840Z,25.60
2018-11-26T11:28:52.693Z,25.60
2018-11-26T11:31:49.207Z,25.60
2018-11-26T11:34:45.672Z,25.60
2018-11-26T11:37:43.240Z,25.60
2018-11-26T11:40:39.717Z,25.60
2018-11-26T11:43:39.228Z,25.60
2018-11-26T11:46:36.460Z,25.70
2018-11-26T11:49:34.749Z,25.70
2018-11-26T11:52:33.411Z,25.60
2018-11-26T11:55:32.371Z,25.70
2018-11-26T11:58:31.404Z,25.70
2018-11-26T12:01:30.329Z,25.70
2018-11-26T12:04:28.845Z,25.70
2018-11-26T12:07:27.308Z,25.70
2018-11-26T12:10:25.556Z,25.70
2018-11-26T12:13:22.616Z,25.70
2018-11-26T12:16:20.081Z,25.70
2018-11-26T12:19:16.808Z,25.70
2018-11-26T12:22:15.263Z,25.70
2018-11-26T12:25:31.767Z,25.60
2018-11-26T12:28:36.409Z,25.70
2018-11-26T12:31:34.649Z,25.60
2018-11-26T12:34:31.413Z,25.60
2018-11-26T12:37:30.259Z,25.60
2018-11-26T12:40:27.681Z,25.60
2018-11-26T12:43:25.370Z,25.60
2018-11-26T12:46:22.459Z,25.60
2018-11-26T12:49:19.463Z,25.50
2018-11-26T12:52:16.983Z,25.60
2018-11-26T12:55:22.192Z,25.50
2018-11-26T12:58:20.091Z,25.60
2018-11-26T13:01:17.562Z,25.60
2018-11-26T13:04:16.924Z,25.60
2018-11-26T13:07:14.274Z,25.60
2018-11-26T13:10:11.762Z,25.60
2018-11-26T13:13:09.235Z,25.50
2018-11-26T13:16:05.168Z,25.50
2018-11-26T13:19:01.565Z,25.50
2018-11-26T13:21:57.598Z,25.50
2018-11-26T13:24:54.226Z,25.50
2018-11-26T13:27:54.951Z,25.50
2018-11-26T13:30:55.498Z,25.50
2018-11-26T13:33:52.053Z,25.50
2018-11-26T13:36:48.050Z,25.50
2018-11-26T13:39:45.113Z,25.50
2018-11-26T13:42:42.513Z,25.50
2018-11-26T13:45:49.284Z,25.50
2018-11-26T13:48:46.396Z,25.40
2018-11-26T13:51:42.941Z,25.40
2018-11-26T13:54:42.963Z,25.40
2018-11-26T13:57:39.331Z,25.40
2018-11-26T14:00:35.913Z,25.40
2018-11-26T14:03:32.420Z,25.40
2018-11-26T14:06:28.612Z,25.40
2018-11-26T14:09:25.140Z,25.40
2018-11-26T14:12:20.913Z,25.40
2018-11-26T14:15:19.087Z,25.40
2018-11-26T14:18:15.574Z,25.40
2018-11-26T14:21:11.754Z,25.40
2018-11-26T14:24:07.981Z,25.40
2018-11-26T14:27:04.159Z,25.40
2018-11-26T14:30:00.361Z,25.40
2018-11-26T14:32:56.572Z,25.40
2018-11-26T14:35:53.176Z,25.40
2018-11-26T14:38:49.215Z,25.40
2018-11-26T14:41:46.429Z,25.40
2018-11-26T14:44:43.199Z,25.40
2018-11-26T14:47:41.000Z,25.40
2018-11-26T14:50:38.053Z,25.40
2018-11-26T14:53:35.048Z,25.40
2018-11-26T14:56:32.560Z,25.40
2018-11-26T14:59:29.857Z,25.40
2018-11-26T15:02:27.925Z,25.40
2018-11-26T15:05:25.164Z,25.40
2018-11-26T15:08:22.425Z,25.40
2018-11-26T15:11:19.626Z,25.40
2018-11-26T15:14:17.178Z,25.40
2018-11-26T15:17:15.591Z,25.40
2018-11-26T15:20:18.117Z,25.40
2018-11-26T15:23:15.473Z,25.40
2018-11-26T15:26:13.195Z,25.40
2018-11-26T15:29:16.242Z,25.40
2018-11-26T15:32:16.961Z,25.40
2018-11-26T15:35:12.756Z,25.40
2018-11-26T15:38:10.272Z,25.40
2018-11-26T15:41:08.367Z,25.40
2018-11-26T15:44:05.911Z,25.40
2018-11-26T15:47:03.635Z,25.40
2018-11-26T15:50:01.367Z,25.40
2018-11-26T15:53:00.755Z,25.40
2018-11-26T15:56:01.878Z,25.40
2018-11-26T15:58:59.635Z,25.40
2018-11-26T16:01:57.189Z,25.40
2018-11-26T16:04:54.731Z,25.40
2018-11-26T16:07:56.786Z,25.40
2018-11-26T16:10:54.888Z,25.40
2018-11-26T16:13:56.482Z,25.40
2018-11-26T16:16:54.305Z,25.40
2018-11-26T16:19:54.679Z,25.40
2018-11-26T16:22:52.735Z,25.30
2018-11-26T16:25:51.385Z,25.30
2018-11-26T16:28:52.158Z,25.30
2018-11-26T16:31:49.707Z,25.30
2018-11-26T16:34:46.945Z,25.30
2018-11-26T16:37:44.236Z,25.30
2018-11-26T16:40:41.799Z,25.30
2018-11-26T16:43:39.191Z,25.30
2018-11-26T16:46:36.477Z,25.30
2018-11-26T16:49:34.012Z,25.30
2018-11-26T16:52:31.527Z,25.30
2018-11-26T16:55:30.425Z,25.30
2018-11-26T16:58:28.368Z,25.30
2018-11-26T17:01:26.577Z,25.30
2018-11-26T17:04:26.740Z,25.30
2018-11-26T17:07:24.324Z,25.30
2018-11-26T17:10:21.992Z,25.30
2018-11-26T17:13:20.484Z,25.30
2018-11-26T17:16:18.291Z,25.30
2018-11-26T17:19:15.464Z,25.30
2018-11-26T17:22:12.939Z,25.20
2018-11-26T17:25:11.029Z,25.30
2018-11-26T17:28:08.326Z,25.30
2018-11-26T17:31:05.604Z,25.20
2018-11-26T17:34:02.522Z,25.20
2018-11-26T17:36:59.675Z,25.20
2018-11-26T17:39:56.695Z,25.20
2018-11-26T17:42:54.244Z,25.20
2018-11-26T17:45:51.200Z,25.20
2018-11-26T17:48:48.446Z,25.20
2018-11-26T17:51:48.513Z,25.20
2018-11-26T17:54:44.792Z,25.20
2018-11-26T17:57:40.765Z,25.20
2018-11-26T18:00:38.442Z,25.20
2018-11-26T18:03:35.286Z,25.20
2018-11-26T18:06:31.274Z,25.20
2018-11-26T18:09:31.002Z,25.20
2018-11-26T18:12:26.989Z,25.20
2018-11-26T18:15:23.091Z,25.20
2018-11-26T18:18:20.436Z,25.20
2018-11-26T18:21:16.519Z,25.20
2018-11-26T18:24:13.007Z,25.20
2018-11-26T18:27:09.386Z,25.20
2018-11-26T18:30:05.683Z,25.20
2018-11-26T18:33:02.534Z,25.20
2018-11-26T18:36:01.474Z,25.20
2018-11-26T18:38:57.809Z,25.20
2018-11-26T18:41:55.313Z,25.20
2018-11-26T18:44:51.644Z,25.20
2018-11-26T18:47:48.408Z,25.20
2018-11-26T18:50:44.941Z,25.20
2018-11-26T18:53:41.101Z,25.20
2018-11-26T18:56:37.626Z,25.20
2018-11-26T18:59:34.071Z,25.20
2018-11-26T19:02:30.648Z,25.20
2018-11-26T19:05:27.117Z,25.20
2018-11-26T19:08:23.288Z,25.20
2018-11-26T19:11:24.240Z,25.20
2018-11-26T19:14:30.597Z,25.20
2018-11-26T19:17:27.513Z,25.20
2018-11-26T19:20:24.389Z,25.20
2018-11-26T19:23:24.328Z,25.20
2018-11-26T19:26:20.914Z,25.20
2018-11-26T19:29:20.673Z,25.20
2018-11-26T19:32:13.837Z,25.20
2018-11-26T19:35:11.155Z,25.20
2018-11-26T19:38:07.197Z,25.20
2018-11-26T19:41:03.155Z,25.20
2018-11-26T19:43:59.301Z,25.20
2018-11-26T19:46:55.589Z,25.20
2018-11-26T19:49:51.756Z,25.20
2018-11-26T19:52:52.594Z,25.20
2018-11-26T19:55:49.250Z,25.20
2018-11-26T19:58:45.272Z,25.20
2018-11-26T20:01:42.061Z,25.20
2018-11-26T20:04:53.891Z,25.20
2018-11-26T20:07:49.980Z,25.20
2018-11-26T20:10:46.510Z,25.20
2018-11-26T20:13:42.813Z,25.20
2018-11-26T20:16:44.879Z,25.10
2018-11-26T20:19:41.608Z,25.10
2018-11-26T20:22:40.076Z,25.10
2018-11-26T20:25:35.893Z,25.10
2018-11-26T20:28:32.347Z,25.10
2018-11-26T20:31:28.784Z,25.10
2018-11-26T20:34:24.863Z,25.10
2018-11-26T20:37:21.263Z,25.10
2018-11-26T20:40:21.665Z,25.10
2018-11-26T20:43:24.379Z,25.10
2018-11-26T20:46:20.904Z,25.10
2018-11-26T20:49:17.276Z,25.10
2018-11-26T20:52:13.646Z,25.10
2018-11-26T20:55:11.110Z,25.10
2018-11-26T20:58:07.420Z,25.10
2018-11-26T21:01:03.517Z,25.10
2018-11-26T21:04:03.930Z,25.10
2018-11-26T21:07:00.841Z,25.10
2018-11-26T21:09:57.063Z,25.10
2018-11-26T21:12:53.386Z,25.10
2018-11-26T21:15:50.764Z,25.10
2018-11-26T21:18:47.239Z,25.10
2018-11-26T21:21:43.406Z,25.10
2018-11-26T21:24:39.681Z,25.10
2018-11-26T21:27:35.993Z,25.10
2018-11-26T21:30:32.365Z,25.10
2018-11-26T21:33:28.773Z,25.10
2018-11-26T21:36:24.652Z,25.10
2018-11-26T21:39:21.194Z,25.10
2018-11-26T21:42:21.025Z,25.10
2018-11-26T21:45:22.027Z,25.10
2018-11-26T21:48:18.789Z,25.10
2018-11-26T21:51:15.294Z,25.10
2018-11-26T21:54:11.679Z,25.10
2018-11-26T21:57:08.411Z,25.10
2018-11-26T22:00:07.105Z,25.10
2018-11-26T22:03:15.309Z,25.10
2018-11-26T22:06:12.347Z,25.10
2018-11-26T22:09:09.252Z,25.10
2018-11-26T22:12:05.273Z,25.10
2018-11-26T22:15:01.260Z,25.10
2018-11-26T22:18:01.083Z,25.10
2018-11-26T22:20:57.387Z,25.10
2018-11-26T22:23:53.826Z,25.00
2018-11-26T22:26:50.270Z,25.00
2018-11-26T22:29:46.867Z,25.00
2018-11-26T22:32:43.336Z,25.00
2018-11-26T22:35:39.825Z,25.00
2018-11-26T22:38:36.205Z,25.00
2018-11-26T22:41:33.156Z,25.00
2018-11-26T22:44:29.165Z,25.00
2018-11-26T22:47:25.281Z,25.00
2018-11-26T22:50:23.191Z,25.00
2018-11-26T22:53:19.986Z,25.00
2018-11-26T22:56:16.151Z,25.00
2018-11-26T22:59:12.607Z,25.00
2018-11-26T23:02:08.833Z,25.00
2018-11-26T23:05:05.099Z,25.00
2018-11-26T23:08:01.512Z,25.00
2018-11-26T23:10:57.825Z,25.00
2018-11-26T23:13:54.541Z,25.00
2018-11-26T23:16:51.011Z,25.00
2018-11-26T23:19:47.093Z,25.00
2018-11-26T23:22:43.399Z,25.00
2018-11-26T23:25:39.437Z,25.00
2018-11-26T23:28:35.717Z,25.00
2018-11-26T23:31:32.004Z,25.00
2018-11-26T23:34:27.746Z,25.00
2018-11-26T23:37:30.373Z,25.00
2018-11-26T23:40:27.734Z,25.00
2018-11-26T23:43:23.570Z,25.00
2018-11-26T23:46:23.723Z,25.00
2018-11-26T23:49:20.222Z,25.00
2018-11-26T23:52:17.027Z,25.00
2018-11-26T23:55:17.481Z,25.00
2018-11-26T23:58:14.107Z,24.90
